Time;durP1;ratioP1;P1;durP2;ratioP2;P2;SDS_P1;SDS_P2;PMS_P1;PMS_P2;Temp;Humidity;BMP_temperature;BMP_pressure;BME280_temperature;BME280_humidity;BME280_pressure;Samples;Min_cycle;Max_cycle;Signal;HPM_P1;HPM_P2
2022/08/26 00:11:43;;;;;;;23.03;11.37;;;;;;;20.95;78.81;100023.56;30855059;28;96637;-57
2022/08/26 00:26:45;;;;;;;21.97;11.67;;;;;;;20.75;79.22;100006.91;30854111;28;96938;-58
2022/08/26 00:41:45;;;;;;;19.67;10.63;;;;;;;20.57;79.83;100006.03;30852577;28;97475;-58
2022/08/26 00:56:52;;;;;;;21.90;12.00;;;;;;;20.53;80.17;100010.28;30851921;28;97152;-58
2022/08/26 01:11:55;;;;;;;33.10;13.43;;;;;;;20.41;80.32;99991.38;30866449;28;96694;-58
2022/08/26 01:27:03;;;;;;;21.63;12.33;;;;;;;20.25;80.69;100011.06;30870026;28;97050;-58
2022/08/26 01:42:08;;;;;;;20.83;13.70;;;;;;;20.15;81.04;100003.56;30868068;28;96728;-58
2022/08/26 01:57:09;;;;;;;31.53;13.57;;;;;;;20.05;81.32;100009.59;30866752;28;96711;-58
2022/08/26 02:12:11;;;;;;;24.30;15.90;;;;;;;19.95;81.65;99996.66;30864339;28;96952;-58
2022/08/26 02:27:13;;;;;;;20.63;13.90;;;;;;;19.84;81.89;100002.09;30864117;28;96829;-58
2022/08/26 02:42:14;;;;;;;33.00;14.83;;;;;;;19.77;81.97;99991.38;30862086;28;97386;-58
2022/08/26 02:57:14;;;;;;;36.43;14.70;;;;;;;19.69;82.16;99991.72;30860463;28;97438;-58
2022/08/26 03:12:14;;;;;;;25.98;14.55;;;;;;;19.54;82.67;99978.69;30858252;28;96991;-58
2022/08/26 03:27:15;;;;;;;29.13;16.27;;;;;;;19.38;82.72;99977.47;30856367;28;97216;-58
2022/08/26 03:42:15;;;;;;;24.48;14.95;;;;;;;19.27;82.78;99971.00;30854779;28;96754;-58
2022/08/26 03:57:16;;;;;;;25.70;16.15;;;;;;;19.23;83.11;99973.38;30854392;28;96758;-58
2022/08/26 04:12:16;;;;;;;30.15;15.65;;;;;;;19.22;83.20;99973.63;30853450;28;97037;-58
2022/08/26 04:27:17;;;;;;;37.22;14.68;;;;;;;19.25;83.44;99973.94;30849896;28;104182;-58
2022/08/26 04:42:17;;;;;;;27.15;14.75;;;;;;;19.42;83.29;99984.06;30859471;28;96703;-58
2022/08/26 04:57:17;;;;;;;25.75;16.25;;;;;;;19.68;83.16;99977.38;30869338;28;97323;-58
2022/08/26 05:12:18;;;;;;;23.20;13.30;;;;;;;20.09;83.16;99982.88;30866904;28;97901;-58
2022/08/26 05:27:18;;;;;;;20.30;12.67;;;;;;;20.63;82.90;99993.44;30866832;28;107272;-59
2022/08/26 05:42:18;;;;;;;19.77;12.80;;;;;;;21.28;81.93;99984.03;30865831;28;97224;-58
2022/08/26 05:57:19;;;;;;;20.23;11.63;;;;;;;22.00;80.55;99980.75;30863971;28;96961;-58
2022/08/26 06:12:20;;;;;;;22.80;11.53;;;;;;;22.62;79.12;99975.00;30862957;28;96605;-59
2022/08/26 06:27:20;;;;;;;20.73;11.23;;;;;;;23.39;76.73;99987.66;30858705;28;96723;-58
2022/08/26 06:42:21;;;;;;;20.27;10.27;;;;;;;24.11;75.91;99988.09;30857922;28;100565;-58
2022/08/26 06:57:21;;;;;;;22.23;10.37;;;;;;;24.39;73.45;99986.06;30855268;28;96780;-60
2022/08/26 07:12:22;;;;;;;17.27;9.77;;;;;;;25.54;72.73;99989.47;30856026;28;96727;-59
2022/08/26 07:27:22;;;;;;;18.20;8.95;;;;;;;26.86;69.12;99988.44;30855912;28;97318;-60
2022/08/26 07:42:23;;;;;;;14.40;8.25;;;;;;;27.56;66.65;99983.78;30855866;28;96960;-60
2022/08/26 07:57:25;;;;;;;19.73;8.00;;;;;;;28.74;62.45;99979.63;30854188;28;96669;-60
2022/08/26 08:12:25;;;;;;;15.63;7.30;;;;;;;29.95;58.09;99984.44;30850584;28;96708;-59
2022/08/26 08:27:26;;;;;;;17.50;7.78;;;;;;;31.35;52.91;99980.19;30849420;28;112171;-61
2022/08/26 08:42:41;;;;;;;16.58;8.52;;;;;;;32.56;48.24;99972.66;30848866;28;96845;-60
2022/08/26 08:57:44;;;;;;;20.63;7.30;;;;;;;33.51;44.31;99963.81;30849025;28;96761;-59
2022/08/26 09:12:46;;;;;;;17.07;6.33;;;;;;;35.81;38.25;99946.59;30849961;28;96696;-59
2022/08/26 09:27:49;;;;;;;15.87;5.67;;;;;;;46.27;23.20;99945.38;30857161;28;96920;-59
2022/08/26 09:43:18;;;;;;;14.67;5.70;;;;;;;51.18;16.51;99948.50;30864032;28;97246;-60
2022/08/26 09:58:35;;;;;;;9.47;4.20;;;;;;;52.44;14.04;99919.19;30862132;28;96773;-60
2022/08/26 10:13:43;;;;;;;11.90;4.73;;;;;;;53.38;12.62;99914.53;30859659;28;96993;-60
2022/08/26 10:29:06;;;;;;;9.50;4.20;;;;;;;53.51;11.97;99906.66;30858798;28;96758;-61
2022/08/26 10:44:11;;;;;;;11.07;4.53;;;;;;;52.37;12.27;99882.50;30857225;28;97523;-61
2022/08/26 10:59:27;;;;;;;9.77;5.10;;;;;;;48.40;14.71;99874.06;30858579;28;97336;-62
2022/08/26 11:14:32;;;;;;;17.93;5.33;;;;;;;45.19;16.65;99850.84;30857437;28;97332;-60
2022/08/26 11:29:56;;;;;;;10.10;4.00;;;;;;;42.52;18.07;99827.25;30856100;28;97199;-61
2022/08/26 11:44:57;;;;;;;11.30;3.80;;;;;;;40.78;19.26;99819.88;30852743;28;97034;-61
2022/08/26 12:00:00;;;;;;;11.63;3.87;;;;;;;39.44;20.20;99797.94;30850570;28;97385;-60
2022/08/26 12:15:12;;;;;;;11.83;3.70;;;;;;;38.16;20.87;99780.59;30850420;28;96756;-60
2022/08/26 12:30:16;;;;;;;8.87;3.40;;;;;;;38.24;21.30;99771.25;30849122;28;96619;-60
2022/08/26 12:45:32;;;;;;;5.73;3.00;;;;;;;37.68;21.82;99756.59;30847970;28;97111;-61
2022/08/26 13:00:36;;;;;;;10.47;3.47;;;;;;;36.76;22.52;99735.41;30854926;28;96925;-60
2022/08/26 13:15:36;;;;;;;13.20;3.33;;;;;;;35.97;23.79;99715.91;30868532;28;97010;-59
2022/08/26 13:30:46;;;;;;;8.23;3.33;;;;;;;36.17;23.89;99695.47;30866431;28;97408;-59
2022/08/26 13:45:48;;;;;;;9.57;3.00;;;;;;;35.74;25.54;99685.94;30863545;28;97362;-61
2022/08/26 14:00:48;;;;;;;9.67;3.07;;;;;;;35.44;25.24;99661.38;30862412;28;96807;-60
2022/08/26 14:15:49;;;;;;;10.77;2.92;;;;;;;34.65;26.25;99662.50;30860942;28;96763;-60
2022/08/26 14:30:52;;;;;;;4.60;2.50;;;;;;;33.99;26.33;99649.59;30861453;28;96635;-60
2022/08/26 14:45:53;;;;;;;8.40;2.97;;;;;;;33.53;26.75;99661.38;30859049;28;96795;-60
2022/08/26 15:00:53;;;;;;;11.88;2.90;;;;;;;33.14;27.17;99648.81;30860029;28;97190;-61
2022/08/26 15:15:54;;;;;;;10.48;2.67;;;;;;;32.39;27.82;99645.47;30857132;28;97398;-60
2022/08/26 15:30:54;;;;;;;10.07;2.22;;;;;;;31.92;28.27;99634.41;30854411;28;97212;-60
2022/08/26 15:45:55;;;;;;;12.98;2.67;;;;;;;31.58;29.68;99625.03;30851811;28;96767;-60
2022/08/26 16:00:56;;;;;;;9.03;2.53;;;;;;;31.33;31.30;99619.22;30852727;28;96687;-59
2022/08/26 16:15:58;;;;;;;11.73;2.92;;;;;;;30.90;32.99;99608.94;30849708;28;96979;-60
2022/08/26 16:30:59;;;;;;;6.53;2.80;;;;;;;30.38;35.03;99602.16;30846447;28;97496;-59
2022/08/26 16:45:59;;;;;;;10.70;2.38;;;;;;;29.77;36.68;99593.59;30868498;28;103410;-59
2022/08/26 17:01:00;;;;;;;10.80;2.83;;;;;;;29.07;37.98;99593.03;30868328;28;97434;-61
2022/08/26 17:16:00;;;;;;;8.93;2.55;;;;;;;28.31;39.69;99599.78;30865664;28;97707;-60
2022/08/26 17:31:01;;;;;;;8.23;2.72;;;;;;;27.58;41.64;99599.38;30864796;28;97367;-59
2022/08/26 17:46:04;;;;;;;7.97;2.97;;;;;;;26.92;42.99;99593.75;30865860;28;96716;-59
2022/08/26 18:01:05;;;;;;;7.73;2.90;;;;;;;26.32;44.05;99603.19;30865411;28;97372;-57
2022/08/26 18:16:05;;;;;;;7.43;2.80;;;;;;;25.74;45.04;99614.91;30863371;28;96689;-58
2022/08/26 18:31:07;;;;;;;10.05;2.90;;;;;;;25.24;46.08;99600.53;30861860;28;97000;-58
2022/08/26 18:46:09;;;;;;;12.60;2.97;;;;;;;24.76;46.93;99614.66;30859340;28;97452;-58
2022/08/26 19:01:10;;;;;;;12.50;3.63;;;;;;;24.41;48.09;99632.72;30858212;28;96802;-58
2022/08/26 19:16:16;;;;;;;15.03;4.60;;;;;;;23.98;49.76;99652.09;30857135;28;96826;-58
2022/08/26 19:31:16;;;;;;;13.87;4.23;;;;;;;23.51;51.82;99670.25;30854281;28;97067;-58
2022/08/26 19:46:20;;;;;;;11.02;3.90;;;;;;;23.31;53.27;99671.00;30855845;28;97247;-58
2022/08/26 20:01:21;;;;;;;9.90;4.07;;;;;;;23.06;54.01;99688.00;30855061;28;97099;-58
2022/08/26 20:16:21;;;;;;;;;;;;;;;22.77;55.33;99661.25;30852603;28;96817;-58
2022/08/26 20:31:22;;;;;;;7.60;4.20;;;;;;;22.44;55.47;99668.69;30852405;28;96724;-58
2022/08/26 20:46:24;;;;;;;15.13;4.70;;;;;;;22.20;55.94;99663.63;30850606;28;96875;-59
2022/08/26 21:01:29;;;;;;;12.23;4.43;;;;;;;21.96;56.58;99680.22;30850521;28;97521;-58
2022/08/26 21:16:30;;;;;;;12.13;6.13;;;;;;;21.79;57.68;99674.13;30848623;28;96733;-58
2022/08/26 21:31:30;;;;;;;11.90;4.13;;;;;;;21.55;58.43;99655.47;30868364;28;96844;-58
2022/08/26 21:46:33;;;;;;;6.90;4.55;;;;;;;21.20;58.85;99667.53;30866925;28;98023;-58
2022/08/26 22:01:34;;;;;;;11.37;5.23;;;;;;;21.03;59.66;99661.38;30867300;28;97215;-58
2022/08/26 22:16:35;;;;;;;8.80;5.43;;;;;;;20.95;60.14;99643.69;30865995;28;96703;-58
2022/08/26 22:31:35;;;;;;;14.50;5.90;;;;;;;20.77;60.69;99623.16;30863994;28;97417;-59
2022/08/26 22:46:37;;;;;;;16.27;5.73;;;;;;;20.59;61.41;99641.31;30862324;28;97036;-58
2022/08/26 23:01:41;;;;;;;12.43;5.80;;;;;;;20.45;62.15;99629.22;30861606;28;96721;-58
2022/08/26 23:16:41;;;;;;;12.43;5.10;;;;;;;20.29;62.32;99625.47;30860604;28;96833;-58
2022/08/26 23:31:41;;;;;;;10.17;5.27;;;;;;;20.14;62.67;99619.84;30859107;28;98894;-58
2022/08/26 23:46:42;;;;;;;22.97;13.83;;;;;;;19.89;63.12;99621.09;30857380;28;96696;-58
